createdAt,value
2019-03-08T00:01:15.489Z,2.45
2019-03-08T00:03:44.298Z,4.00
2019-03-08T00:06:13.235Z,2.42
2019-03-08T00:08:42.046Z,2.10
2019-03-08T00:11:10.910Z,2.80
2019-03-08T00:13:39.673Z,2.33
2019-03-08T00:16:08.611Z,3.15
2019-03-08T00:18:37.558Z,5.03
2019-03-08T00:21:06.421Z,3.85
2019-03-08T00:23:35.667Z,4.92
2019-03-08T00:26:04.486Z,1.60
2019-03-08T00:28:33.327Z,4.80
2019-03-08T00:31:02.138Z,4.12
2019-03-08T00:33:30.966Z,6.62
2019-03-08T00:35:59.720Z,6.00
2019-03-08T00:38:28.795Z,2.45
2019-03-08T00:40:57.702Z,3.20
2019-03-08T00:43:26.607Z,3.80
2019-03-08T00:45:55.561Z,2.35
2019-03-08T00:48:24.398Z,2.47
2019-03-08T00:50:53.278Z,7.97
2019-03-08T00:53:22.419Z,3.45
2019-03-08T00:55:51.288Z,1.80
2019-03-08T00:58:20.148Z,2.30
2019-03-08T01:00:49.069Z,3.05
2019-03-08T01:03:17.986Z,3.52
2019-03-08T01:05:46.776Z,3.72
2019-03-08T01:08:15.680Z,4.40
2019-03-08T01:10:44.584Z,1.72
2019-03-08T01:13:13.499Z,2.35
2019-03-08T01:15:42.320Z,2.40
2019-03-08T01:18:11.249Z,2.08
2019-03-08T01:20:40.063Z,3.08
2019-03-08T01:23:09.028Z,1.62
2019-03-08T01:25:37.913Z,2.30
2019-03-08T01:28:11.381Z,2.15
2019-03-08T01:30:40.469Z,4.08
2019-03-08T01:33:09.253Z,3.02
2019-03-08T01:35:38.197Z,1.32
2019-03-08T01:38:07.087Z,2.72
2019-03-08T01:40:35.964Z,2.30
2019-03-08T01:43:04.881Z,2.00
2019-03-08T01:45:33.876Z,1.98
2019-03-08T01:48:02.997Z,1.70
2019-03-08T01:50:32.019Z,2.55
2019-03-08T01:53:00.929Z,2.20
2019-03-08T01:55:29.828Z,3.70
2019-03-08T01:57:58.688Z,1.75
2019-03-08T02:00:27.539Z,1.30
2019-03-08T02:02:56.473Z,2.60
2019-03-08T02:05:25.280Z,1.20
2019-03-08T02:07:54.286Z,1.10
2019-03-08T02:10:23.086Z,3.10
2019-03-08T02:12:51.819Z,2.40
2019-03-08T02:15:20.652Z,1.67
2019-03-08T02:17:49.696Z,2.58
2019-03-08T02:20:19.834Z,2.33
2019-03-08T02:22:48.676Z,0.98
2019-03-08T02:25:17.619Z,1.20
2019-03-08T02:27:46.480Z,1.75
2019-03-08T02:30:16.320Z,3.83
2019-03-08T02:32:45.226Z,1.32
2019-03-08T02:35:14.291Z,1.42
2019-03-08T02:37:43.163Z,3.35
2019-03-08T02:40:29.419Z,1.55
2019-03-08T02:42:58.413Z,1.52
2019-03-08T02:45:27.213Z,1.50
2019-03-08T02:47:56.107Z,1.57
2019-03-08T02:50:24.910Z,2.17
2019-03-08T02:52:53.702Z,1.20
2019-03-08T02:55:22.554Z,2.45
2019-03-08T02:57:51.729Z,2.00
2019-03-08T03:00:20.660Z,1.52
2019-03-08T03:02:49.475Z,2.00
2019-03-08T03:05:18.307Z,2.80
2019-03-08T03:07:47.259Z,1.95
2019-03-08T03:10:16.094Z,1.42
2019-03-08T03:12:45.064Z,1.00
2019-03-08T03:15:14.081Z,2.80
2019-03-08T03:17:42.900Z,2.75
2019-03-08T03:20:11.736Z,2.27
2019-03-08T03:22:40.700Z,2.33
2019-03-08T03:25:10.142Z,1.42
2019-03-08T03:27:38.952Z,1.67
2019-03-08T03:30:08.285Z,0.90
2019-03-08T03:32:37.190Z,0.95
2019-03-08T03:35:06.320Z,1.65
2019-03-08T03:37:35.179Z,2.20
2019-03-08T03:40:04.812Z,2.17
2019-03-08T03:42:33.732Z,2.02
2019-03-08T03:45:02.632Z,1.00
2019-03-08T03:47:31.394Z,1.10
2019-03-08T03:50:00.300Z,1.20
2019-03-08T03:52:28.941Z,1.05
2019-03-08T03:54:57.849Z,1.00
2019-03-08T03:57:26.711Z,1.12
2019-03-08T03:59:55.423Z,2.92
2019-03-08T04:02:24.325Z,1.17
2019-03-08T04:04:53.277Z,1.50
2019-03-08T04:07:22.052Z,1.82
2019-03-08T04:09:50.946Z,2.87
2019-03-08T04:12:19.687Z,2.65
2019-03-08T04:14:48.574Z,2.27
2019-03-08T04:17:17.408Z,4.10
2019-03-08T04:19:46.251Z,3.67
2019-03-08T04:22:15.135Z,1.85
2019-03-08T04:24:43.980Z,2.72
2019-03-08T04:27:12.696Z,1.45
2019-03-08T04:29:41.552Z,0.80
2019-03-08T04:32:10.348Z,3.25
2019-03-08T04:34:39.156Z,1.55
2019-03-08T04:37:07.997Z,3.42
2019-03-08T04:39:36.961Z,4.05
2019-03-08T04:42:05.902Z,1.27
2019-03-08T04:44:34.662Z,2.40
2019-03-08T04:47:03.500Z,2.60
2019-03-08T04:49:32.451Z,0.90
2019-03-08T04:52:01.342Z,1.27
2019-03-08T04:54:30.258Z,2.75
2019-03-08T04:56:59.140Z,4.97
2019-03-08T04:59:27.969Z,1.22
2019-03-08T05:01:56.760Z,1.27
2019-03-08T05:04:25.568Z,3.67
2019-03-08T05:06:54.550Z,1.92
2019-03-08T05:09:23.396Z,2.17
2019-03-08T05:11:52.317Z,2.40
2019-03-08T05:14:21.061Z,2.33
2019-03-08T05:16:49.815Z,2.52
2019-03-08T05:19:18.673Z,3.20
2019-03-08T05:21:47.785Z,2.75
2019-03-08T05:24:16.627Z,2.30
2019-03-08T05:26:45.408Z,2.37
2019-03-08T05:29:14.285Z,2.33
2019-03-08T05:31:43.178Z,1.80
2019-03-08T05:34:11.965Z,3.17
2019-03-08T05:36:40.889Z,1.98
2019-03-08T05:39:11.854Z,3.65
2019-03-08T05:41:40.666Z,1.45
2019-03-08T05:44:09.520Z,1.00
2019-03-08T05:46:38.277Z,1.12
2019-03-08T05:49:07.016Z,3.20
2019-03-08T05:51:36.057Z,3.90
2019-03-08T05:54:04.905Z,3.10
2019-03-08T05:56:33.804Z,3.15
2019-03-08T05:59:02.516Z,1.45
2019-03-08T06:01:31.390Z,3.40
2019-03-08T06:04:00.335Z,3.20
2019-03-08T06:06:29.484Z,1.60
2019-03-08T06:08:58.294Z,1.30
2019-03-08T06:11:27.130Z,1.92
2019-03-08T06:13:55.876Z,3.33
2019-03-08T06:16:24.821Z,2.95
2019-03-08T06:18:53.696Z,2.12
2019-03-08T06:21:22.578Z,3.15
2019-03-08T06:23:52.621Z,4.12
2019-03-08T06:26:21.451Z,1.92
2019-03-08T06:28:52.010Z,5.00
2019-03-08T06:31:20.836Z,2.15
2019-03-08T06:33:49.741Z,2.55
2019-03-08T06:36:18.967Z,6.90
2019-03-08T06:38:47.854Z,5.60
2019-03-08T06:41:16.669Z,1.75
2019-03-08T06:43:45.573Z,2.58
2019-03-08T06:46:14.411Z,1.85
2019-03-08T06:48:43.252Z,2.90
2019-03-08T06:51:12.212Z,2.33
2019-03-08T06:53:41.148Z,5.05
2019-03-08T06:56:09.999Z,3.37
2019-03-08T06:59:02.730Z,1.60
2019-03-08T07:01:35.268Z,2.92
2019-03-08T07:04:04.104Z,3.95
2019-03-08T07:06:33.495Z,5.03
2019-03-08T07:09:02.352Z,5.20
2019-03-08T07:11:31.174Z,3.10
2019-03-08T07:13:59.987Z,4.50
2019-03-08T07:16:29.060Z,2.05
2019-03-08T07:18:57.800Z,5.83
2019-03-08T07:21:45.600Z,3.62
2019-03-08T07:24:30.334Z,3.72
2019-03-08T07:27:20.948Z,4.25
2019-03-08T07:30:07.506Z,3.27
2019-03-08T07:33:10.566Z,2.37
2019-03-08T07:35:58.342Z,3.33
2019-03-08T07:38:49.855Z,3.85
2019-03-08T07:41:49.459Z,4.58
2019-03-08T07:44:40.437Z,5.80
2019-03-08T07:47:24.738Z,3.02
2019-03-08T07:50:11.226Z,5.67
2019-03-08T07:52:53.137Z,3.45
2019-03-08T07:55:28.263Z,4.45
2019-03-08T07:58:09.693Z,4.28
2019-03-08T08:00:57.557Z,4.08
2019-03-08T08:03:31.057Z,12.93
2019-03-08T08:06:27.939Z,26.95
2019-03-08T08:09:06.692Z,29.18
2019-03-08T08:11:59.374Z,12.07
2019-03-08T08:14:39.973Z,13.63
2019-03-08T08:17:39.811Z,8.35
2019-03-08T08:20:39.014Z,12.70
2019-03-08T08:23:34.658Z,8.43
2019-03-08T08:26:19.678Z,9.43
2019-03-08T08:29:13.684Z,6.30
2019-03-08T08:31:57.536Z,9.10
2019-03-08T08:34:36.232Z,9.05
2019-03-08T08:37:18.294Z,5.42
2019-03-08T08:40:09.290Z,6.92
2019-03-08T08:42:49.149Z,6.25
2019-03-08T08:45:45.798Z,8.18
2019-03-08T08:48:33.611Z,6.83
2019-03-08T08:51:17.370Z,5.72
2019-03-08T08:53:57.730Z,7.95
2019-03-08T08:56:37.530Z,6.42
2019-03-08T08:59:24.249Z,7.53
2019-03-08T09:02:10.747Z,8.88
2019-03-08T09:05:01.754Z,7.53
2019-03-08T09:07:49.622Z,7.45
2019-03-08T09:10:28.657Z,9.50
2019-03-08T09:13:16.780Z,6.40
2019-03-08T09:16:16.713Z,5.70
2019-03-08T09:19:07.665Z,8.38
2019-03-08T09:22:00.953Z,6.30
2019-03-08T09:24:39.196Z,9.13
2019-03-08T09:27:22.779Z,7.95
2019-03-08T09:30:11.140Z,8.10
2019-03-08T09:32:59.475Z,8.55
2019-03-08T09:35:35.826Z,7.50
2019-03-08T09:38:22.186Z,5.95
2019-03-08T09:41:15.843Z,6.83
2019-03-08T09:44:01.659Z,7.40
2019-03-08T09:46:49.336Z,9.63
2019-03-08T09:49:26.882Z,5.78
2019-03-08T09:52:14.749Z,7.90
2019-03-08T09:55:08.819Z,9.30
2019-03-08T09:57:56.825Z,6.53
2019-03-08T10:00:36.270Z,7.90
2019-03-08T10:03:27.063Z,7.75
2019-03-08T10:06:30.078Z,4.50
2019-03-08T10:09:18.146Z,6.08
2019-03-08T10:12:09.635Z,4.42
2019-03-08T10:14:56.487Z,5.75
2019-03-08T10:17:43.155Z,5.90
2019-03-08T10:20:33.727Z,7.50
2019-03-08T10:23:20.307Z,6.12
2019-03-08T10:25:55.702Z,7.40
2019-03-08T10:28:34.147Z,6.75
2019-03-08T10:31:13.001Z,6.00
2019-03-08T10:34:06.641Z,8.13
2019-03-08T10:36:54.504Z,8.78
2019-03-08T10:39:37.018Z,7.78
2019-03-08T10:42:21.296Z,4.87
2019-03-08T10:45:04.562Z,4.80
2019-03-08T10:50:37.554Z,6.95
2019-03-08T10:53:21.368Z,5.78
2019-03-08T10:56:04.410Z,5.60
2019-03-08T10:58:55.502Z,7.45
2019-03-08T11:01:49.308Z,5.42
2019-03-08T11:04:32.292Z,7.60
2019-03-08T11:07:25.948Z,4.30
2019-03-08T11:10:11.336Z,5.78
2019-03-08T11:13:07.909Z,5.53
2019-03-08T11:16:04.587Z,5.75
2019-03-08T11:18:54.618Z,6.20
2019-03-08T11:21:54.521Z,5.75
2019-03-08T11:24:41.181Z,5.75
2019-03-08T11:27:32.228Z,5.60
2019-03-08T11:30:17.233Z,6.47
2019-03-08T11:33:04.131Z,7.67
2019-03-08T11:35:58.172Z,7.12
2019-03-08T11:38:42.951Z,4.15
2019-03-08T11:41:31.831Z,5.65
2019-03-08T11:44:23.747Z,6.00
2019-03-08T11:47:11.563Z,4.97
2019-03-08T11:50:05.201Z,4.20
2019-03-08T11:53:02.133Z,6.97
2019-03-08T11:55:58.899Z,4.67
2019-03-08T11:58:39.640Z,5.12
2019-03-08T12:01:28.511Z,6.03
2019-03-08T12:04:16.230Z,4.83
2019-03-08T12:06:58.352Z,4.53
2019-03-08T12:09:58.145Z,5.95
2019-03-08T12:12:54.939Z,5.28
2019-03-08T12:15:45.986Z,5.58
2019-03-08T12:18:31.797Z,5.42
2019-03-08T12:21:19.686Z,4.00
2019-03-08T12:24:25.808Z,5.75
2019-03-08T12:26:59.973Z,4.55
2019-03-08T12:29:47.867Z,5.37
2019-03-08T12:32:35.672Z,5.85
2019-03-08T12:35:22.952Z,6.53
2019-03-08T12:38:09.458Z,4.10
2019-03-08T12:40:57.326Z,3.90
2019-03-08T12:43:45.088Z,4.05
2019-03-08T12:46:29.707Z,6.55
2019-03-08T12:49:26.869Z,3.75
2019-03-08T12:52:20.723Z,5.37
2019-03-08T12:55:11.349Z,4.03
2019-03-08T12:57:59.227Z,3.50
2019-03-08T13:00:45.889Z,4.47
2019-03-08T13:03:39.981Z,5.10
2019-03-08T13:06:14.128Z,6.05
2019-03-08T13:09:00.405Z,3.05
2019-03-08T13:11:33.165Z,4.55
2019-03-08T13:14:00.164Z,5.90
2019-03-08T13:16:29.031Z,6.37
2019-03-08T13:18:57.986Z,4.80
2019-03-08T13:21:26.876Z,5.30
2019-03-08T13:23:55.887Z,4.20
2019-03-08T13:26:24.907Z,6.90
2019-03-08T13:28:54.291Z,4.10
2019-03-08T13:31:23.138Z,4.67
2019-03-08T13:33:55.163Z,6.50
2019-03-08T13:36:24.026Z,4.97
2019-03-08T13:38:53.108Z,6.12
2019-03-08T13:41:22.384Z,6.00
2019-03-08T13:43:51.303Z,5.50
2019-03-08T13:46:20.306Z,6.90
2019-03-08T13:48:51.395Z,5.53
2019-03-08T13:51:19.946Z,5.45
2019-03-08T13:53:48.978Z,4.35
2019-03-08T13:56:17.924Z,9.18
2019-03-08T13:58:47.389Z,4.97
2019-03-08T14:01:16.365Z,7.20
2019-03-08T14:03:45.207Z,8.20
2019-03-08T14:06:13.998Z,7.72
2019-03-08T14:08:43.321Z,5.90
2019-03-08T14:11:12.534Z,5.30
2019-03-08T14:13:41.387Z,6.58
2019-03-08T14:16:10.487Z,6.97
2019-03-08T14:18:39.459Z,5.03
2019-03-08T14:21:08.469Z,5.10
2019-03-08T14:23:37.615Z,8.58
2019-03-08T14:26:06.697Z,3.27
2019-03-08T14:28:35.525Z,7.60
2019-03-08T14:31:26.168Z,6.25
2019-03-08T14:33:55.228Z,5.47
2019-03-08T14:36:24.281Z,4.28
2019-03-08T14:38:53.230Z,5.35
2019-03-08T14:41:31.870Z,5.00
2019-03-08T14:44:26.389Z,6.42
2019-03-08T14:47:04.657Z,4.85
2019-03-08T14:49:33.660Z,6.80
2019-03-08T14:52:02.654Z,4.62
2019-03-08T14:54:31.606Z,7.30
2019-03-08T14:57:00.601Z,9.55
2019-03-08T14:59:29.520Z,4.50
2019-03-08T15:01:58.542Z,5.33
2019-03-08T15:04:29.468Z,4.75
2019-03-08T15:07:01.309Z,4.40
2019-03-08T15:09:29.422Z,6.50
2019-03-08T15:12:00.603Z,5.87
2019-03-08T15:14:30.307Z,10.90
2019-03-08T15:17:08.871Z,6.55
2019-03-08T15:19:30.913Z,8.68
2019-03-08T15:21:59.965Z,5.15
2019-03-08T15:24:37.922Z,3.12
2019-03-08T15:26:59.637Z,4.37
2019-03-08T15:29:28.549Z,5.97
2019-03-08T15:31:57.683Z,4.10
2019-03-08T15:34:26.685Z,5.60
2019-03-08T15:36:55.639Z,7.55
2019-03-08T15:39:24.775Z,3.92
2019-03-08T15:41:53.940Z,4.05
2019-03-08T15:44:24.468Z,8.00
2019-03-08T15:46:55.821Z,4.33
2019-03-08T15:49:26.581Z,6.97
2019-03-08T15:51:55.494Z,4.62
2019-03-08T15:54:24.556Z,3.90
2019-03-08T15:56:53.620Z,2.65
2019-03-08T15:59:22.496Z,3.33
2019-03-08T16:01:51.506Z,4.00
2019-03-08T16:04:20.874Z,5.33
2019-03-08T16:06:49.718Z,6.62
2019-03-08T16:09:18.906Z,3.50
2019-03-08T16:11:48.030Z,5.50
2019-03-08T16:14:17.002Z,5.12
2019-03-08T16:16:45.893Z,4.80
2019-03-08T16:19:14.792Z,4.50
2019-03-08T16:21:46.894Z,3.20
2019-03-08T16:24:14.610Z,5.50
2019-03-08T16:26:43.968Z,2.65
2019-03-08T16:29:13.218Z,5.00
2019-03-08T16:32:13.373Z,4.95
2019-03-08T16:34:42.751Z,4.90
2019-03-08T16:37:17.026Z,4.10
2019-03-08T16:40:11.381Z,5.65
2019-03-08T16:42:47.340Z,4.05
2019-03-08T16:45:32.291Z,3.92
2019-03-08T16:48:17.597Z,3.60
2019-03-08T16:51:15.401Z,4.22
2019-03-08T16:53:54.060Z,2.67
2019-03-08T16:56:45.355Z,3.27
2019-03-08T16:59:23.351Z,6.35
2019-03-08T17:02:05.821Z,4.67
2019-03-08T17:04:54.443Z,5.15
2019-03-08T17:07:41.481Z,10.28
2019-03-08T17:10:28.726Z,16.55
2019-03-08T17:13:23.747Z,18.80
2019-03-08T17:16:24.286Z,14.38
2019-03-08T17:19:11.420Z,12.00
2019-03-08T17:21:51.823Z,12.65
2019-03-08T17:24:51.983Z,6.78
2019-03-08T17:27:49.460Z,12.68
2019-03-08T17:30:31.693Z,8.53
2019-03-08T17:33:22.904Z,8.10
2019-03-08T17:36:01.119Z,6.83
2019-03-08T17:38:45.956Z,8.38
2019-03-08T17:41:33.394Z,6.65
2019-03-08T17:44:16.848Z,8.30
2019-03-08T17:47:07.914Z,10.82
2019-03-08T17:49:54.582Z,7.85
2019-03-08T17:52:54.646Z,6.40
2019-03-08T17:55:48.839Z,7.92
2019-03-08T17:58:35.989Z,5.17
2019-03-08T18:01:15.097Z,5.87
2019-03-08T18:04:02.552Z,8.50
2019-03-08T18:06:49.627Z,5.03
2019-03-08T18:09:31.879Z,6.95
2019-03-08T18:12:24.063Z,7.05
2019-03-08T18:15:12.939Z,7.67
2019-03-08T18:18:16.649Z,3.95
2019-03-08T18:23:35.746Z,4.53
2019-03-08T18:26:17.766Z,6.22
2019-03-08T18:29:01.952Z,6.95
2019-03-08T18:31:45.524Z,5.65
2019-03-08T18:34:43.042Z,5.72
2019-03-08T18:37:25.940Z,5.90
2019-03-08T18:40:20.615Z,5.33
2019-03-08T18:42:57.300Z,4.37
2019-03-08T18:45:46.406Z,5.20
2019-03-08T18:48:34.330Z,5.03
2019-03-08T18:51:21.376Z,5.00
2019-03-08T18:54:09.460Z,5.85
2019-03-08T18:57:09.419Z,5.28
2019-03-08T18:59:51.624Z,7.75
2019-03-08T19:02:36.590Z,8.15
2019-03-08T19:05:37.888Z,6.67
2019-03-08T19:08:26.263Z,4.28
2019-03-08T19:11:23.551Z,6.17
2019-03-08T19:14:11.193Z,8.93
2019-03-08T19:17:02.830Z,5.10
2019-03-08T19:19:55.034Z,6.70
2019-03-08T19:22:52.625Z,6.55
2019-03-08T19:25:50.275Z,7.85
2019-03-08T19:28:38.692Z,6.80
2019-03-08T19:31:32.968Z,4.35
2019-03-08T19:34:12.771Z,5.80
2019-03-08T19:36:51.999Z,6.42
2019-03-08T19:39:43.154Z,5.22
2019-03-08T19:42:38.159Z,4.87
2019-03-08T19:45:22.719Z,6.97
2019-03-08T19:48:10.343Z,5.75
2019-03-08T19:50:58.482Z,4.28
2019-03-08T19:53:54.745Z,4.60
2019-03-08T19:56:49.483Z,7.03
2019-03-08T19:59:29.577Z,6.72
2019-03-08T20:02:15.409Z,6.67
2019-03-08T20:04:57.697Z,5.65
2019-03-08T20:07:39.543Z,5.67
2019-03-08T20:10:44.402Z,6.17
2019-03-08T20:13:42.234Z,6.72
2019-03-08T20:16:34.876Z,5.62
2019-03-08T20:19:24.297Z,5.72
2019-03-08T20:22:10.395Z,5.85
2019-03-08T20:25:11.730Z,4.00
2019-03-08T20:27:54.877Z,5.03
2019-03-08T20:30:42.193Z,5.72
2019-03-08T20:33:34.281Z,4.55
2019-03-08T20:36:23.619Z,4.87
2019-03-08T20:39:11.167Z,3.20
2019-03-08T20:42:07.188Z,4.33
2019-03-08T20:44:49.616Z,6.67
2019-03-08T20:47:23.131Z,6.73
2019-03-08T20:49:53.059Z,5.97
2019-03-08T20:52:23.471Z,7.70
2019-03-08T20:54:53.294Z,6.35
2019-03-08T20:57:23.334Z,5.20
2019-03-08T20:59:53.771Z,4.22
2019-03-08T21:02:24.085Z,5.50
2019-03-08T21:04:54.331Z,5.67
2019-03-08T21:07:24.723Z,5.65
2019-03-08T21:09:55.275Z,3.75
2019-03-08T21:12:25.640Z,3.98
2019-03-08T21:14:56.616Z,3.35
2019-03-08T21:17:26.248Z,4.42
2019-03-08T21:19:55.919Z,4.22
2019-03-08T21:22:26.404Z,3.65
2019-03-08T21:24:56.163Z,3.67
2019-03-08T21:27:26.548Z,3.55
2019-03-08T21:29:57.171Z,6.37
2019-03-08T21:32:27.329Z,5.55
2019-03-08T21:34:57.375Z,5.78
2019-03-08T21:37:27.626Z,6.83
2019-03-08T21:39:57.762Z,5.12
2019-03-08T21:42:28.262Z,4.40
2019-03-08T21:44:57.994Z,4.05
2019-03-08T21:47:27.557Z,4.28
2019-03-08T21:49:56.962Z,5.53
2019-03-08T21:52:26.121Z,4.10
2019-03-08T21:54:55.540Z,4.42
2019-03-08T21:57:25.660Z,3.50
2019-03-08T21:59:55.176Z,4.62
2019-03-08T22:02:24.629Z,4.58
2019-03-08T22:04:58.184Z,3.80
2019-03-08T22:07:27.955Z,3.85
2019-03-08T22:10:31.544Z,4.40
2019-03-08T22:13:00.719Z,5.08
2019-03-08T22:15:30.244Z,6.45
2019-03-08T22:17:59.520Z,3.47
2019-03-08T22:20:28.670Z,5.22
2019-03-08T22:22:57.967Z,2.92
2019-03-08T22:25:27.451Z,5.60
2019-03-08T22:27:56.823Z,3.33
2019-03-08T22:30:26.337Z,4.67
2019-03-08T22:32:55.690Z,2.58
2019-03-08T22:35:24.739Z,4.45
2019-03-08T22:37:54.060Z,4.97
2019-03-08T22:40:23.293Z,2.50
2019-03-08T22:42:52.287Z,4.00
2019-03-08T22:45:21.286Z,4.03
2019-03-08T22:47:50.243Z,7.12
2019-03-08T22:50:19.722Z,6.20
2019-03-08T22:52:48.891Z,3.87
2019-03-08T22:55:18.121Z,3.30
2019-03-08T22:57:47.075Z,5.70
2019-03-08T23:00:25.769Z,6.47
2019-03-08T23:02:54.833Z,4.60
2019-03-08T23:05:23.674Z,5.12
2019-03-08T23:07:52.830Z,3.87
2019-03-08T23:10:21.852Z,3.30
2019-03-08T23:12:52.328Z,4.55
2019-03-08T23:15:21.483Z,5.80
2019-03-08T23:17:50.400Z,5.00
2019-03-08T23:20:19.351Z,4.28
2019-03-08T23:22:48.327Z,5.12
2019-03-08T23:25:17.268Z,4.15
2019-03-08T23:27:55.643Z,6.10
2019-03-08T23:30:28.020Z,6.33
2019-03-08T23:32:57.235Z,3.77
2019-03-08T23:35:26.370Z,3.55
2019-03-08T23:37:55.762Z,3.92
2019-03-08T23:40:24.756Z,6.65
2019-03-08T23:42:53.606Z,4.03
2019-03-08T23:45:22.531Z,5.05
2019-03-08T23:47:51.399Z,4.53
2019-03-08T23:50:20.278Z,4.80
2019-03-08T23:52:49.205Z,5.50
2019-03-08T23:55:18.054Z,5.12
2019-03-08T23:57:47.005Z,3.72
